Time;durP1;ratioP1;P1;durP2;ratioP2;P2;SDS_P1;SDS_P2;PMS_P1;PMS_P2;Temp;Humidity;BMP_temperature;BMP_pressure;BME280_temperature;BME280_humidity;BME280_pressure;Samples;Min_cycle;Max_cycle;Signal;HPM_P1;HPM_P2
2022/05/19 00:00:11;;;;;;;28.92;21.38;;;;;;;18.61;91.21;101570.66;5271087;28;20031;-66
2022/05/19 00:02:43;;;;;;;25.70;20.67;;;;;;;18.63;92.30;101564.28;5272236;28;20036;-66
2022/05/19 00:05:14;;;;;;;25.80;20.08;;;;;;;18.66;91.79;101558.53;5268567;28;20035;-66
2022/05/19 00:07:45;;;;;;;26.70;20.88;;;;;;;18.70;92.28;101547.28;5273202;28;20134;-66
2022/05/19 00:10:17;;;;;;;27.52;20.55;;;;;;;18.57;92.96;101554.91;5270264;28;20039;-66
2022/05/19 00:12:51;;;;;;;27.95;20.00;;;;;;;18.55;93.47;101548.81;5272740;28;20028;-66
2022/05/19 00:15:23;;;;;;;23.95;20.67;;;;;;;18.47;92.98;101544.16;5264941;28;20025;-66
2022/05/19 00:17:54;;;;;;;26.13;20.55;;;;;;;18.52;93.39;101543.69;5273914;28;20036;-65
2022/05/19 00:20:25;;;;;;;26.05;21.15;;;;;;;18.57;93.40;101536.00;5271349;28;20024;-66
2022/05/19 00:22:56;;;;;;;25.40;20.50;;;;;;;18.47;93.58;101541.47;5271361;28;20040;-66
2022/05/19 00:25:30;;;;;;;25.05;20.65;;;;;;;18.47;93.25;101530.66;5268303;28;20040;-66
2022/05/19 00:28:01;;;;;;;28.97;21.43;;;;;;;18.35;92.54;101539.97;5272524;28;20123;-66
2022/05/19 00:30:34;;;;;;;27.75;21.92;;;;;;;18.39;94.39;101531.41;5271129;28;20031;-66
2022/05/19 00:33:05;;;;;;;29.30;22.08;;;;;;;18.31;92.97;101527.75;5272233;28;20020;-66
2022/05/19 00:35:38;;;;;;;29.67;22.48;;;;;;;18.32;94.70;101532.19;5270697;28;20379;-64
2022/05/19 00:38:10;;;;;;;29.38;22.17;;;;;;;18.25;93.48;101525.69;5273506;28;20031;-65
2022/05/19 00:40:47;;;;;;;25.25;21.05;;;;;;;18.23;94.05;101517.72;5270198;28;20025;-65
2022/05/19 00:43:29;;;;;;;25.98;21.25;;;;;;;18.22;93.81;101519.56;5271121;28;20020;-65
2022/05/19 00:46:10;;;;;;;30.48;22.85;;;;;;;18.13;94.98;101525.88;5267612;28;20025;-65
2022/05/19 00:49:09;;;;;;;27.98;21.33;;;;;;;18.23;93.97;101518.56;5267069;28;20524;-65
2022/05/19 00:51:46;;;;;;;26.00;22.10;;;;;;;18.10;95.41;101518.09;5264510;28;20032;-65
2022/05/19 00:54:24;;;;;;;27.10;23.02;;;;;;;18.07;95.50;101518.38;5270691;28;20028;-65
2022/05/19 00:57:10;;;;;;;27.17;23.63;;;;;;;18.09;94.57;101510.97;5270428;28;20024;-65
2022/05/19 00:59:51;;;;;;;28.13;22.30;;;;;;;18.07;96.21;101502.19;5269723;28;20066;-65
2022/05/19 01:02:30;;;;;;;32.42;23.85;;;;;;;18.06;94.60;101500.47;5271436;28;20094;-65
2022/05/19 01:05:22;;;;;;;26.85;21.67;;;;;;;18.02;96.50;101499.06;5268828;28;20041;-65
2022/05/19 01:07:56;;;;;;;29.58;23.05;;;;;;;18.01;96.00;101484.72;5271672;28;20439;-65
2022/05/19 01:10:27;;;;;;;27.85;22.50;;;;;;;17.99;97.30;101488.59;5269975;28;20028;-65
2022/05/19 01:12:58;;;;;;;30.08;23.35;;;;;;;17.95;96.31;101490.72;5270831;28;20034;-65
2022/05/19 01:15:34;;;;;;;29.58;23.35;;;;;;;17.81;96.60;101483.94;5267819;28;20642;-65
2022/05/19 01:18:06;;;;;;;29.50;23.60;;;;;;;17.75;97.36;101476.44;5270309;28;20024;-65
2022/05/19 01:20:38;;;;;;;31.55;24.13;;;;;;;17.75;97.89;101484.53;5268016;28;20021;-65
2022/05/19 01:23:34;;;;;;;29.10;23.65;;;;;;;17.79;97.47;101487.78;5276310;28;20052;-65
2022/05/19 01:26:42;;;;;;;27.73;22.85;;;;;;;17.75;97.79;101476.44;5269263;28;20055;-65
2022/05/19 01:29:15;;;;;;;28.38;23.30;;;;;;;17.72;98.07;101471.34;5270258;28;20114;-65
2022/05/19 01:31:47;;;;;;;27.30;24.02;;;;;;;17.67;98.63;101462.84;5267241;28;20062;-65
2022/05/19 01:34:23;;;;;;;31.98;25.30;;;;;;;17.61;99.04;101460.72;5269672;28;20620;-66
2022/05/19 01:36:55;;;;;;;29.95;24.75;;;;;;;17.51;98.93;101441.88;5268951;28;20044;-65
2022/05/19 01:39:29;;;;;;;29.33;24.63;;;;;;;17.57;99.85;101448.53;5268715;28;20125;-65
2022/05/19 01:42:31;;;;;;;31.67;25.33;;;;;;;17.56;99.48;101449.53;5269207;28;20052;-65
2022/05/19 01:45:20;;;;;;;29.73;24.08;;;;;;;17.50;98.70;101455.53;5269125;28;20024;-65
2022/05/19 01:47:59;;;;;;;27.50;24.05;;;;;;;17.51;99.43;101449.97;5264804;28;20471;-65
2022/05/19 01:50:49;;;;;;;31.25;25.05;;;;;;;17.52;99.47;101456.22;5270037;28;20170;-65
2022/05/19 01:53:27;;;;;;;34.38;26.85;;;;;;;17.43;100.00;101441.75;5266432;28;20036;-65
2022/05/19 01:56:12;;;;;;;30.95;25.15;;;;;;;17.40;99.78;101448.31;5268954;28;20047;-65
2022/05/19 01:58:51;;;;;;;30.90;25.77;;;;;;;17.43;99.42;101448.03;5270615;28;20120;-65
2022/05/19 02:01:27;;;;;;;33.03;27.13;;;;;;;17.33;100.00;101446.34;5270251;28;20374;-65
2022/05/19 02:04:17;;;;;;;32.47;26.38;;;;;;;17.47;100.00;101434.22;5267246;28;20489;-65
2022/05/19 02:06:55;;;;;;;34.72;27.73;;;;;;;17.40;100.00;101429.41;5272147;28;20622;-65
2022/05/19 02:09:37;;;;;;;31.00;26.48;;;;;;;17.40;100.00;101426.72;5268958;28;21013;-65
2022/05/19 02:12:09;;;;;;;31.33;25.90;;;;;;;17.50;100.00;101429.38;5270596;28;20033;-65
2022/05/19 02:14:46;;;;;;;36.38;27.38;;;;;;;17.44;100.00;101435.38;5270108;28;20036;-65
2022/05/19 02:17:21;;;;;;;34.00;26.58;;;;;;;17.39;100.00;101440.34;5266114;28;20032;-65
2022/05/19 02:19:57;;;;;;;30.02;26.35;;;;;;;17.41;100.00;101441.94;5267861;28;20024;-65
2022/05/19 02:22:34;;;;;;;31.67;25.50;;;;;;;17.44;100.00;101446.16;5269535;28;20114;-65
2022/05/19 02:25:16;;;;;;;31.48;26.23;;;;;;;17.48;100.00;101435.94;5269908;28;20113;-65
2022/05/19 02:28:04;;;;;;;31.08;25.73;;;;;;;17.46;100.00;101440.63;5267953;28;20036;-65
2022/05/19 02:30:38;;;;;;;31.08;23.92;;;;;;;17.54;100.00;101443.44;5268375;28;20541;-65
2022/05/19 02:33:13;;;;;;;30.08;24.17;;;;;;;17.58;100.00;101442.13;5269721;28;20052;-65
2022/05/19 02:35:45;;;;;;;29.55;24.95;;;;;;;17.57;100.00;101437.75;5269457;28;20032;-65
2022/05/19 02:38:18;;;;;;;30.30;23.40;;;;;;;17.62;100.00;101443.53;5270573;28;21115;-65
2022/05/19 02:40:50;;;;;;;29.70;23.38;;;;;;;17.57;100.00;101440.44;5269644;28;20134;-65
2022/05/19 02:43:21;;;;;;;29.52;23.58;;;;;;;17.57;100.00;101441.28;5271308;28;20042;-65
2022/05/19 02:45:53;;;;;;;27.65;23.33;;;;;;;17.72;100.00;101448.88;5272041;28;20040;-65
2022/05/19 02:48:24;;;;;;;25.13;21.35;;;;;;;17.72;100.00;101443.47;5267304;28;20033;-65
2022/05/19 02:50:56;;;;;;;24.33;21.65;;;;;;;17.82;100.00;101452.41;5268713;28;20047;-65
2022/05/19 02:53:27;;;;;;;26.63;21.50;;;;;;;17.95;99.43;101455.63;5269973;28;20043;-65
2022/05/19 02:55:58;;;;;;;25.02;20.38;;;;;;;17.94;99.22;101453.91;5268814;28;20419;-65
2022/05/19 02:58:30;;;;;;;25.30;21.08;;;;;;;17.92;98.97;101460.47;5272005;28;20028;-65
2022/05/19 03:01:06;;;;;;;25.40;21.25;;;;;;;17.95;97.41;101476.34;5269035;28;20112;-65
2022/05/19 03:03:37;;;;;;;28.10;20.48;;;;;;;18.07;97.66;101531.03;5269062;28;20063;-65
2022/05/19 03:06:08;;;;;;;26.45;22.13;;;;;;;18.16;97.51;101585.00;5271730;28;20119;-65
2022/05/19 03:08:40;;;;;;;34.40;26.02;;;;;;;18.18;97.87;101574.91;5268537;28;20056;-65
2022/05/19 03:11:11;;;;;;;25.67;19.52;;;;;;;18.40;92.79;101572.78;5272423;28;20039;-65
2022/05/19 03:13:42;;;;;;;26.45;18.45;;;;;;;18.48;91.67;101602.59;5268565;28;20691;-66
2022/05/19 03:16:13;;;;;;;25.83;21.77;;;;;;;18.49;92.93;101620.53;5267338;28;20032;-65
2022/05/19 03:18:45;;;;;;;23.50;21.00;;;;;;;18.56;92.64;101610.84;5266168;28;20032;-65
2022/05/19 03:21:16;;;;;;;25.23;20.27;;;;;;;18.69;91.16;101604.19;5273120;28;20090;-65
2022/05/19 03:23:48;;;;;;;23.23;19.83;;;;;;;18.55;91.67;101616.38;5271579;28;20048;-65
2022/05/19 03:26:19;;;;;;;20.85;18.30;;;;;;;18.59;91.71;101613.22;5270819;28;20039;-65
2022/05/19 03:28:50;;;;;;;22.50;18.92;;;;;;;18.66;90.17;101615.31;5271764;28;20039;-65
2022/05/19 03:31:22;;;;;;;23.15;18.25;;;;;;;18.66;90.88;101610.78;5273321;28;20086;-65
2022/05/19 03:33:53;;;;;;;20.30;18.02;;;;;;;18.65;90.65;101614.47;5270133;28;20444;-65
2022/05/19 03:36:24;;;;;;;24.65;18.35;;;;;;;18.64;90.86;101612.78;5274535;28;20029;-65
2022/05/19 03:38:56;;;;;;;23.05;19.17;;;;;;;18.63;90.00;101618.31;5269285;28;20148;-65
2022/05/19 03:41:27;;;;;;;22.42;18.83;;;;;;;18.57;91.14;101606.28;5273636;28;20380;-65
2022/05/19 03:43:58;;;;;;;22.13;18.23;;;;;;;18.57;92.60;101617.91;5270053;28;20437;-65
2022/05/19 03:46:30;;;;;;;21.65;18.73;;;;;;;18.52;91.97;101619.38;5270029;28;20047;-65
2022/05/19 03:49:01;;;;;;;24.00;19.15;;;;;;;18.61;92.84;101595.00;5270155;28;20423;-65
2022/05/19 03:51:34;;;;;;;21.95;18.52;;;;;;;18.57;92.87;101599.00;5274803;28;20086;-65
2022/05/19 03:54:05;;;;;;;23.55;18.67;;;;;;;18.67;94.19;101598.94;5272540;28;20036;-65
2022/05/19 03:56:36;;;;;;;22.33;18.00;;;;;;;18.53;95.50;101602.16;5274124;28;20034;-65
2022/05/19 03:59:07;;;;;;;20.48;18.13;;;;;;;18.48;95.81;101618.81;5268180;28;20040;-65
2022/05/19 04:01:41;;;;;;;22.00;18.50;;;;;;;18.51;94.46;101633.91;5270147;28;20195;-65
2022/05/19 04:04:13;;;;;;;20.05;17.95;;;;;;;18.51;93.67;101631.19;5269635;28;20063;-65
2022/05/19 04:06:44;;;;;;;21.60;19.33;;;;;;;18.51;97.53;101626.63;5270322;28;20542;-65
2022/05/19 04:09:15;;;;;;;22.55;19.25;;;;;;;18.51;96.44;101628.50;5266932;28;20064;-65
2022/05/19 04:11:47;;;;;;;21.95;19.05;;;;;;;18.52;97.92;101633.72;5272179;28;20029;-65
2022/05/19 04:14:19;;;;;;;23.52;18.58;;;;;;;18.70;97.48;101619.44;5270804;28;20430;-65
2022/05/19 04:16:53;;;;;;;22.10;17.58;;;;;;;18.64;95.93;101626.28;5286892;28;20115;-65
2022/05/19 04:19:24;;;;;;;22.83;18.98;;;;;;;18.52;97.61;101632.88;5269048;28;20085;-65
2022/05/19 04:21:55;;;;;;;21.42;17.98;;;;;;;18.58;96.31;101626.88;5270985;28;20111;-65
2022/05/19 04:24:27;;;;;;;20.75;17.73;;;;;;;18.60;97.09;101641.97;5272182;28;20138;-65
2022/05/19 04:26:58;;;;;;;21.55;19.23;;;;;;;18.57;93.95;101631.44;5272474;28;20035;-65
2022/05/19 04:29:30;;;;;;;25.85;19.95;;;;;;;18.69;94.80;101633.94;5267871;28;20028;-65
2022/05/19 04:32:02;;;;;;;24.63;20.33;;;;;;;18.73;92.96;101622.66;5270103;28;20063;-65
2022/05/19 04:34:33;;;;;;;23.20;19.98;;;;;;;18.80;92.55;101621.09;5270465;28;20074;-65
2022/05/19 04:37:05;;;;;;;23.85;19.88;;;;;;;18.76;93.22;101616.13;5270671;28;20037;-65
2022/05/19 04:39:36;;;;;;;24.45;20.08;;;;;;;18.83;92.71;101614.53;5270846;28;20029;-65
2022/05/19 04:42:10;;;;;;;27.60;20.20;;;;;;;18.84;92.05;101616.22;5269617;28;20027;-65
2022/05/19 04:44:41;;;;;;;21.70;18.88;;;;;;;18.92;93.79;101623.56;5271683;28;20039;-65
2022/05/19 04:47:12;;;;;;;20.95;18.63;;;;;;;18.83;93.17;101622.66;5271449;28;20032;-65
2022/05/19 04:49:43;;;;;;;25.13;19.20;;;;;;;18.77;94.09;101624.06;5267998;28;20064;-65
2022/05/19 04:52:15;;;;;;;25.75;19.35;;;;;;;18.83;93.11;101602.84;5276504;28;20487;-65
2022/05/19 04:54:47;;;;;;;21.67;17.55;;;;;;;18.86;93.14;101605.25;5275282;28;20107;-65
2022/05/19 04:57:19;;;;;;;19.50;16.95;;;;;;;18.87;93.51;101613.22;5270607;28;20540;-65
2022/05/19 04:59:50;;;;;;;18.95;16.25;;;;;;;18.89;92.25;101618.47;5272487;28;20028;-65
2022/05/19 05:02:21;;;;;;;20.10;15.13;;;;;;;18.93;92.08;101617.19;5272201;28;20031;-65
2022/05/19 05:04:53;;;;;;;17.65;14.55;;;;;;;18.89;92.32;101619.34;5267195;28;20467;-65
2022/05/19 05:07:24;;;;;;;19.40;14.48;;;;;;;18.87;92.80;101613.22;5268834;28;20028;-65
2022/05/19 05:09:55;;;;;;;20.25;13.55;;;;;;;18.91;92.26;101613.78;5273524;28;20115;-65
2022/05/19 05:12:26;;;;;;;14.90;13.13;;;;;;;18.88;91.99;101605.97;5269686;28;20420;-65
2022/05/19 05:14:58;;;;;;;18.05;14.18;;;;;;;18.85;92.55;101601.72;5272303;28;20038;-65
2022/05/19 05:17:29;;;;;;;19.80;14.25;;;;;;;18.84;93.12;101591.06;5266334;28;20504;-65
2022/05/19 05:20:02;;;;;;;22.42;16.20;;;;;;;18.46;100.00;101582.16;5265838;28;20119;-65
2022/05/19 05:22:35;;;;;;;26.23;20.00;;;;;;;18.06;100.00;101581.47;5282614;28;20043;-64
2022/05/19 05:25:12;;;;;;;28.38;20.85;;;;;;;17.96;100.00;101565.31;5264297;28;20036;-65
2022/05/19 05:27:43;;;;;;;30.48;20.85;;;;;;;18.01;100.00;101557.63;5270765;28;20051;-65
2022/05/19 05:30:14;;;;;;;28.83;21.88;;;;;;;17.96;100.00;101551.81;5268219;28;20032;-65
2022/05/19 05:32:46;;;;;;;27.25;21.90;;;;;;;17.96;100.00;101540.16;5268495;28;20033;-65
2022/05/19 05:35:17;;;;;;;25.48;21.38;;;;;;;18.01;100.00;101540.59;5271538;28;20064;-66
2022/05/19 05:37:49;;;;;;;22.25;19.83;;;;;;;17.87;100.00;101535.66;5272001;28;20032;-65
2022/05/19 05:40:20;;;;;;;25.00;20.60;;;;;;;17.99;100.00;101504.78;5265604;28;20032;-65
2022/05/19 05:42:52;;;;;;;25.60;22.42;;;;;;;18.07;100.00;101502.19;5274072;28;20058;-65
2022/05/19 05:45:23;;;;;;;26.75;23.95;;;;;;;17.98;100.00;101497.66;5269854;28;20407;-65
2022/05/19 05:47:54;;;;;;;27.75;24.45;;;;;;;17.99;100.00;101488.59;5270821;28;20078;-65
2022/05/19 05:50:26;;;;;;;28.55;25.50;;;;;;;17.92;100.00;101499.13;5275514;28;20589;-65
2022/05/19 05:52:58;;;;;;;28.55;25.42;;;;;;;17.91;100.00;101520.84;5270958;28;20024;-65
2022/05/19 05:55:30;;;;;;;28.45;25.52;;;;;;;17.92;100.00;101511.78;5271176;28;20036;-65
2022/05/19 05:58:09;;;;;;;28.65;24.58;;;;;;;17.92;100.00;101506.38;5278103;28;20491;-65
2022/05/19 06:00:41;;;;;;;26.60;23.92;;;;;;;17.92;100.00;101493.72;5272936;28;20399;-65
2022/05/19 06:03:13;;;;;;;24.13;21.17;;;;;;;17.90;100.00;101495.72;5275348;28;20034;-65
2022/05/19 06:05:44;;;;;;;24.17;21.08;;;;;;;17.86;100.00;101478.13;5271926;28;20028;-65
2022/05/19 06:08:15;;;;;;;26.40;23.55;;;;;;;17.90;100.00;101497.56;5271295;28;21137;-65
2022/05/19 06:10:47;;;;;;;28.15;24.80;;;;;;;17.97;100.00;101523.81;5271952;28;20115;-65
2022/05/19 06:13:18;;;;;;;32.58;27.23;;;;;;;18.01;100.00;101509.03;5274333;28;20103;-66
2022/05/19 06:15:50;;;;;;;34.22;29.35;;;;;;;18.09;100.00;101508.28;5267187;28;20398;-66
2022/05/19 06:18:21;;;;;;;35.28;31.48;;;;;;;18.17;100.00;101521.88;5272065;28;20032;-66
2022/05/19 06:20:53;;;;;;;37.65;32.60;;;;;;;18.22;100.00;101518.72;5269384;28;20035;-65
2022/05/19 06:23:24;;;;;;;35.88;32.17;;;;;;;18.23;100.00;101513.16;5272782;28;20095;-65
2022/05/19 06:25:55;;;;;;;35.25;31.52;;;;;;;18.25;100.00;101512.16;5271739;28;20259;-65
2022/05/19 06:28:27;;;;;;;33.10;29.50;;;;;;;18.19;100.00;101505.50;5266371;28;20031;-65
2022/05/19 06:30:59;;;;;;;33.25;29.88;;;;;;;18.19;100.00;101500.94;5268166;28;20032;-66
2022/05/19 06:33:32;;;;;;;36.25;32.42;;;;;;;18.25;100.00;101499.50;5267996;28;20502;-66
2022/05/19 06:36:10;;;;;;;31.67;28.40;;;;;;;18.22;100.00;101505.22;5263906;28;20043;-66
2022/05/19 06:38:41;;;;;;;33.88;30.38;;;;;;;18.30;100.00;101509.88;5265696;28;20054;-66
2022/05/19 06:44:04;;;;;;;36.13;30.85;;;;;;;18.32;100.00;101506.00;5269008;28;20029;-66
2022/05/19 06:46:35;;;;;;;34.55;30.83;;;;;;;18.46;100.00;101490.28;5235536;28;20062;-66
2022/05/19 06:49:07;;;;;;;33.50;30.13;;;;;;;18.42;100.00;101466.25;5248533;28;20112;-66
2022/05/19 06:51:38;;;;;;;34.08;30.60;;;;;;;18.46;100.00;101479.47;5249442;28;20033;-66
2022/05/19 06:54:10;;;;;;;34.75;31.33;;;;;;;18.49;100.00;101490.81;5252412;28;20733;-65
2022/05/19 06:56:42;;;;;;;33.67;30.15;;;;;;;18.52;100.00;101487.78;5272407;28;20440;-66
2022/05/19 06:59:16;;;;;;;31.27;28.02;;;;;;;18.58;100.00;101481.78;5270897;28;20155;-65
2022/05/19 07:01:47;;;;;;;34.45;30.58;;;;;;;18.59;100.00;101491.59;5269534;28;20589;-65
2022/05/19 07:04:19;;;;;;;35.80;29.65;;;;;;;18.65;100.00;101487.41;5272328;28;20115;-65
2022/05/19 07:06:50;;;;;;;30.88;27.52;;;;;;;18.68;100.00;101475.44;5274570;28;20111;-65
2022/05/19 07:09:21;;;;;;;30.73;27.50;;;;;;;18.76;100.00;101480.94;5270385;28;20433;-65
2022/05/19 07:11:53;;;;;;;31.10;27.90;;;;;;;18.80;100.00;101476.94;5270090;28;20085;-65
2022/05/19 07:14:24;;;;;;;25.85;23.20;;;;;;;18.80;100.00;101471.53;5269653;28;20047;-65
2022/05/19 07:16:55;;;;;;;29.00;25.90;;;;;;;18.86;100.00;101467.38;5272014;28;20370;-66
2022/05/19 07:22:37;;;;;;;28.83;26.02;;;;;;;19.02;100.00;101477.44;5196345;28;20530;-66
2022/05/19 07:25:10;;;;;;;27.00;24.23;;;;;;;19.12;100.00;101464.66;5209139;28;20436;-66
2022/05/19 07:27:42;;;;;;;24.58;21.95;;;;;;;19.20;100.00;101464.75;5245776;28;20056;-66
2022/05/19 07:30:14;;;;;;;26.27;23.45;;;;;;;19.21;100.00;101463.72;5274618;28;20046;-66
2022/05/19 07:32:46;;;;;;;25.23;22.70;;;;;;;19.27;100.00;101465.81;5274664;28;20422;-66
2022/05/19 07:35:18;;;;;;;26.98;24.35;;;;;;;19.36;100.00;101472.09;5272423;28;20035;-66
2022/05/19 07:37:49;;;;;;;25.60;22.85;;;;;;;19.53;100.00;101481.19;5270843;28;20119;-66
2022/05/19 07:40:20;;;;;;;23.42;21.10;;;;;;;19.66;100.00;101483.47;5272718;28;20020;-66
2022/05/19 07:42:52;;;;;;;24.10;21.70;;;;;;;19.75;100.00;101491.50;5274664;28;20031;-66
2022/05/19 07:45:23;;;;;;;24.58;22.08;;;;;;;19.85;100.00;101501.31;5275381;28;20074;-66
2022/05/19 07:47:54;;;;;;;22.73;20.20;;;;;;;20.05;100.00;101500.06;5273867;28;20035;-66
2022/05/19 07:50:26;;;;;;;25.13;22.13;;;;;;;20.04;100.00;101495.66;5269428;28;20067;-66
2022/05/19 07:52:57;;;;;;;21.40;19.20;;;;;;;20.15;100.00;101491.78;5269136;28;20154;-66
2022/05/19 07:55:28;;;;;;;20.83;18.83;;;;;;;20.27;100.00;101486.91;5273086;28;20036;-66
2022/05/19 07:58:00;;;;;;;19.92;17.75;;;;;;;20.32;100.00;101487.28;5271327;28;20033;-65
2022/05/19 08:00:31;;;;;;;24.25;20.80;;;;;;;20.33;100.00;101488.97;5267931;28;20047;-65
2022/05/19 08:03:03;;;;;;;22.33;18.35;;;;;;;20.39;100.00;101487.47;5273227;28;20440;-65
2022/05/19 08:05:35;;;;;;;22.38;17.55;;;;;;;20.44;100.00;101482.38;5272315;28;20364;-65
2022/05/19 08:08:06;;;;;;;19.33;16.75;;;;;;;20.59;100.00;101482.59;5270872;28;20131;-65
2022/05/19 08:10:37;;;;;;;18.50;15.77;;;;;;;20.75;100.00;101479.94;5286129;28;20037;-66
2022/05/19 08:15:59;;;;;;;16.08;14.38;;;;;;;20.90;100.00;101490.94;5272657;28;20040;-65
2022/05/19 08:18:31;;;;;;;19.63;14.93;;;;;;;21.07;100.00;101489.06;5265121;28;20021;-65
2022/05/19 08:21:06;;;;;;;14.82;13.10;;;;;;;21.16;99.60;101488.03;5270105;28;20036;-65
2022/05/19 08:23:41;;;;;;;17.90;13.52;;;;;;;21.19;100.00;101489.56;5268702;28;20140;-65
2022/05/19 08:26:13;;;;;;;17.02;13.15;;;;;;;21.17;100.00;101489.75;5269918;28;20032;-65
2022/05/19 08:28:48;;;;;;;16.52;12.68;;;;;;;21.33;100.00;101488.88;5266555;28;20271;-66
2022/05/19 08:31:22;;;;;;;13.48;11.55;;;;;;;21.40;99.60;101495.31;5267920;28;20039;-67
2022/05/19 08:33:54;;;;;;;11.82;10.40;;;;;;;21.49;99.52;101477.16;5269305;28;20294;-66
2022/05/19 08:36:26;;;;;;;12.50;11.20;;;;;;;21.53;100.00;101478.50;5268363;28;21615;-65
2022/05/19 08:38:57;;;;;;;11.77;10.35;;;;;;;21.70;93.36;101479.28;5269189;28;20026;-65
2022/05/19 08:41:36;;;;;;;13.68;10.07;;;;;;;21.77;97.47;101477.56;5271299;28;20055;-65
2022/05/19 08:44:14;;;;;;;12.60;9.82;;;;;;;21.81;96.69;101478.06;5271674;28;20481;-65
2022/05/19 08:46:52;;;;;;;11.38;9.82;;;;;;;21.98;96.37;101473.41;5267502;28;20564;-65
2022/05/19 08:49:41;;;;;;;11.88;8.88;;;;;;;22.12;92.97;101470.78;5269955;28;20154;-65
2022/05/19 08:52:18;;;;;;;11.73;8.70;;;;;;;22.39;88.27;101459.63;5274192;28;20024;-66
2022/05/19 08:54:53;;;;;;;11.82;10.02;;;;;;;22.23;94.39;101458.66;5264470;28;20036;-66
2022/05/19 08:57:46;;;;;;;9.98;7.80;;;;;;;22.59;89.36;101458.13;5271281;28;20047;-66
2022/05/19 09:00:30;;;;;;;13.32;8.85;;;;;;;22.71;89.31;101456.66;5272881;28;20064;-66
2022/05/19 09:03:15;;;;;;;12.20;8.43;;;;;;;22.74;88.04;101454.59;5274127;28;20157;-66
2022/05/19 09:05:46;;;;;;;;;;;;;;;22.61;100.00;101447.03;5271389;28;20032;-66
2022/05/19 09:08:26;;;;;;;11.05;7.50;;;;;;;22.85;91.11;101449.53;5270350;28;19919;-66
2022/05/19 09:11:07;;;;;;;8.27;7.15;;;;;;;23.10;84.11;101447.47;5272526;28;20040;-67
2022/05/19 09:14:01;;;;;;;10.60;6.05;;;;;;;23.28;90.53;101447.13;5272049;28;20037;-67
2022/05/19 09:16:38;;;;;;;13.27;6.93;;;;;;;23.67;80.85;101447.88;5271866;28;20029;-66
2022/05/19 09:19:16;;;;;;;10.73;6.80;;;;;;;23.97;79.50;101443.28;5270883;28;20553;-66
2022/05/19 09:21:55;;;;;;;11.15;6.95;;;;;;;24.37;77.99;101443.69;5269908;28;20513;-66
2022/05/19 09:24:26;;;;;;;8.85;6.60;;;;;;;24.33;81.20;101442.38;5272375;28;20040;-66
2022/05/19 09:26:58;;;;;;;11.38;7.55;;;;;;;24.45;80.87;101427.22;5268426;28;20505;-67
2022/05/19 09:29:41;;;;;;;8.95;6.80;;;;;;;24.56;86.03;101436.78;5267682;28;20025;-67
2022/05/19 09:32:18;;;;;;;8.25;6.35;;;;;;;24.75;78.33;101445.34;5272728;28;20632;-67
2022/05/19 09:34:52;;;;;;;12.88;6.95;;;;;;;24.95;74.15;101440.91;5269117;28;20039;-67
2022/05/19 09:37:42;;;;;;;12.80;6.28;;;;;;;25.01;83.91;101442.00;5269835;28;20024;-67
2022/05/19 09:40:30;;;;;;;9.30;5.68;;;;;;;24.96;83.86;101448.03;5264957;28;20080;-67
2022/05/19 09:43:08;;;;;;;8.32;6.00;;;;;;;25.00;79.68;101443.03;5272992;28;20458;-66
2022/05/19 09:45:46;;;;;;;11.30;7.07;;;;;;;24.99;75.94;101439.47;5272702;28;20036;-66
2022/05/19 09:48:27;;;;;;;9.23;5.70;;;;;;;24.98;83.27;101445.13;5267486;28;20028;-66
2022/05/19 09:51:09;;;;;;;10.50;6.13;;;;;;;25.18;77.71;101437.09;5262100;28;20024;-67
2022/05/19 09:53:54;;;;;;;11.75;6.28;;;;;;;24.99;80.89;101436.72;5269097;28;20043;-67
2022/05/19 09:56:37;;;;;;;10.65;6.20;;;;;;;25.14;75.39;101438.50;5271043;28;20036;-67
2022/05/19 09:59:36;;;;;;;11.90;5.93;;;;;;;25.10;84.84;101432.59;5269708;28;20056;-67
2022/05/19 10:02:27;;;;;;;12.63;5.60;;;;;;;25.32;74.41;101422.50;5263995;28;20028;-66
2022/05/19 10:05:00;;;;;;;8.60;5.15;;;;;;;25.28;70.59;101431.28;5269693;28;20032;-66
2022/05/19 10:07:36;;;;;;;9.43;4.63;;;;;;;25.26;73.17;101417.84;5270135;28;20040;-66
2022/05/19 10:10:26;;;;;;;9.45;4.70;;;;;;;25.37;79.56;101394.56;5269063;28;20113;-67
2022/05/19 10:13:06;;;;;;;8.85;4.55;;;;;;;25.62;67.10;101390.28;5271676;28;20462;-67
2022/05/19 10:15:51;;;;;;;8.45;4.20;;;;;;;25.67;74.53;101384.19;5270465;28;20036;-66
2022/05/19 10:18:50;;;;;;;8.30;4.40;;;;;;;25.70;70.84;101372.84;5268875;28;20044;-66
2022/05/19 10:21:39;;;;;;;5.57;4.00;;;;;;;25.81;73.92;101377.72;5269175;28;20020;-67
2022/05/19 10:24:29;;;;;;;7.75;3.90;;;;;;;26.24;59.23;101383.97;5271523;28;20059;-66
2022/05/19 10:31:07;;;;;;;5.97;3.70;;;;;;;26.46;70.09;101368.19;5254253;28;20040;-67
2022/05/19 10:34:00;;;;;;;6.72;3.83;;;;;;;26.56;68.95;101369.47;5271428;28;20067;-67
2022/05/19 10:36:40;;;;;;;8.70;3.97;;;;;;;26.51;61.41;101369.25;5270897;28;20119;-66
2022/05/19 10:39:42;;;;;;;9.27;3.83;;;;;;;26.81;65.29;101371.59;5274273;28;20028;-68
2022/05/19 10:42:36;;;;;;;7.90;4.30;;;;;;;26.87;58.01;101386.34;5274278;28;20025;-66
2022/05/19 10:45:37;;;;;;;9.00;4.07;;;;;;;27.24;64.23;101389.41;5268023;28;20573;-66
2022/05/19 10:48:27;;;;;;;6.70;3.90;;;;;;;27.30;59.22;101380.34;5263362;28;20052;-67
2022/05/19 10:51:29;;;;;;;5.97;4.07;;;;;;;27.32;63.82;101372.75;5271121;28;20399;-67
2022/05/19 10:54:03;;;;;;;6.63;4.03;;;;;;;27.29;60.23;101375.91;5273225;28;20365;-67
2022/05/19 10:56:48;;;;;;;6.05;3.85;;;;;;;27.44;56.79;101375.66;5266647;28;20448;-66
2022/05/19 10:59:40;;;;;;;5.70;3.55;;;;;;;27.74;57.56;101365.00;5272530;28;20563;-67
2022/05/19 11:03:01;;;;;;;8.25;3.58;;;;;;;27.91;59.28;101366.19;5273186;28;20526;-67
2022/05/19 11:05:58;;;;;;;6.55;3.92;;;;;;;27.83;59.58;101369.16;5272114;28;20440;-66
2022/05/19 11:08:29;;;;;;;5.43;3.40;;;;;;;27.75;54.04;101366.69;5273444;28;20052;-67
2022/05/19 11:11:17;;;;;;;8.05;3.60;;;;;;;27.59;56.92;101365.28;5275837;28;20024;-67
2022/05/19 11:14:00;;;;;;;4.90;3.15;;;;;;;27.25;55.00;101361.84;5273818;28;20067;-73
2022/05/19 11:16:41;;;;;;;6.65;3.20;;;;;;;27.07;54.89;101362.47;5269517;28;20029;-69
2022/05/19 11:19:20;;;;;;;6.93;3.63;;;;;;;26.85;58.47;101363.75;5268519;28;20119;-70
2022/05/19 11:22:08;;;;;;;6.43;3.55;;;;;;;26.71;58.51;101372.03;5271485;28;20048;-67
2022/05/19 11:27:56;;;;;;;6.72;3.75;;;;;;;26.21;63.50;101397.00;5269377;28;20036;-67
2022/05/19 11:30:37;;;;;;;8.57;4.00;;;;;;;26.08;62.32;101409.78;5267289;28;20032;-66
2022/05/19 11:33:14;;;;;;;6.88;3.50;;;;;;;25.94;58.77;101411.66;5274706;28;20032;-66
2022/05/19 11:35:53;;;;;;;7.05;3.70;;;;;;;25.65;64.23;101426.44;5271442;28;20032;-66
2022/05/19 11:38:42;;;;;;;7.45;3.72;;;;;;;25.53;61.86;101437.13;5272233;28;20036;-66
2022/05/19 11:41:23;;;;;;;7.90;4.07;;;;;;;25.45;62.57;101626.66;5271655;28;20028;-67
2022/05/19 11:44:19;;;;;;;152.20;13.50;;;;;;;23.87;66.91;101740.66;5274367;28;20380;-67
2022/05/19 11:47:14;;;;;;;38.65;7.10;;;;;;;20.57;94.01;101703.19;5272695;28;20081;-64
2022/05/19 11:55:48;;;;;;;6.38;1.70;;;;;;;16.97;100.00;101661.81;5270836;28;20044;-62
2022/05/19 11:58:28;;;;;;;6.25;1.92;;;;;;;16.38;100.00;101644.63;5273220;28;20465;-64
2022/05/19 12:01:06;;;;;;;4.25;1.45;;;;;;;16.20;100.00;101645.25;5272665;28;20024;-63
2022/05/19 12:03:56;;;;;;;5.95;1.20;;;;;;;15.94;100.00;101630.50;5270065;28;20051;-64
2022/05/19 12:06:47;;;;;;;6.05;1.55;;;;;;;15.77;100.00;101611.28;5269768;28;20028;-64
2022/05/19 12:09:30;;;;;;;5.85;1.90;;;;;;;15.83;100.00;101618.81;5267347;28;20039;-64
2022/05/19 12:12:18;;;;;;;6.15;2.42;;;;;;;15.82;100.00;101633.28;5270026;28;20028;-65